createdAt,value
2023-04-17T00:01:12.182Z,25.25
2023-04-17T00:03:10.709Z,25.25
2023-04-17T00:05:10.354Z,25.25
2023-04-17T00:07:09.470Z,25.25
2023-04-17T00:09:09.164Z,25.25
2023-04-17T00:11:29.862Z,25.25
2023-04-17T00:13:09.157Z,25.25
2023-04-17T00:15:09.676Z,25.25
2023-04-17T00:17:09.675Z,25.25
2023-04-17T00:19:09.138Z,25.25
2023-04-17T00:21:09.543Z,25.25
2023-04-17T00:23:32.862Z,25.25
2023-04-17T00:25:09.428Z,25.25
2023-04-17T00:27:08.903Z,25.25
2023-04-17T00:29:09.709Z,25.25
2023-04-17T00:31:09.218Z,25.25
2023-04-17T00:33:09.138Z,25.25
2023-04-17T00:35:09.423Z,25.25
2023-04-17T00:37:08.743Z,25.25
2023-04-17T00:39:09.815Z,25.25
2023-04-17T00:41:08.927Z,25.25
2023-04-17T00:43:09.432Z,25.25
2023-04-17T00:45:09.022Z,25.25
2023-04-17T00:47:09.825Z,25.25
2023-04-17T00:49:09.444Z,25.25
2023-04-17T00:51:09.603Z,25.25
2023-04-17T00:53:09.085Z,25.25
2023-04-17T00:55:09.639Z,25.25
2023-04-17T00:57:09.190Z,25.25
2023-04-17T00:59:09.853Z,25.25
2023-04-17T01:01:12.304Z,25.25
2023-04-17T01:03:10.595Z,25.25
2023-04-17T01:05:09.689Z,25.25
2023-04-17T01:07:09.525Z,25.25
2023-04-17T01:09:09.135Z,25.25
2023-04-17T01:11:09.571Z,25.25
2023-04-17T01:13:09.673Z,25.25
2023-04-17T01:15:10.635Z,25.25
2023-04-17T01:17:09.772Z,25.25
2023-04-17T01:19:10.244Z,25.25
2023-04-17T01:21:09.288Z,25.25
2023-04-17T01:23:08.721Z,25.25
2023-04-17T01:25:09.446Z,25.25
2023-04-17T01:27:09.074Z,25.25
2023-04-17T01:29:09.812Z,25.25
2023-04-17T01:31:09.542Z,25.25
2023-04-17T01:33:10.057Z,25.25
2023-04-17T01:35:11.592Z,25.25
2023-04-17T01:37:09.618Z,25.25
2023-04-17T01:39:09.296Z,25.25
2023-04-17T01:41:09.705Z,25.25
2023-04-17T01:43:09.198Z,25.25
2023-04-17T01:45:08.955Z,25.25
2023-04-17T01:47:09.773Z,25.25
2023-04-17T01:49:09.085Z,25.25
2023-04-17T01:51:09.468Z,25.25
2023-04-17T01:53:08.992Z,25.25
2023-04-17T01:55:09.599Z,25.25
2023-04-17T01:57:09.142Z,25.25
2023-04-17T01:59:09.894Z,25.25
2023-04-17T02:01:12.049Z,25.25
2023-04-17T02:03:10.887Z,25.25
2023-04-17T02:05:09.955Z,25.25
2023-04-17T02:07:09.580Z,25.25
2023-04-17T02:09:09.334Z,25.25
2023-04-17T02:11:09.905Z,25.25
2023-04-17T02:13:09.407Z,25.25
2023-04-17T02:15:09.089Z,25.25
2023-04-17T02:17:09.797Z,25.25
2023-04-17T02:19:09.246Z,25.25
2023-04-17T02:21:09.785Z,25.25
2023-04-17T02:23:09.280Z,25.25
2023-04-17T02:25:08.808Z,25.25
2023-04-17T02:27:09.139Z,25.25
2023-04-17T02:29:09.107Z,25.25
2023-04-17T02:31:09.729Z,25.25
2023-04-17T02:33:09.420Z,25.25
2023-04-17T02:35:09.477Z,25.25
2023-04-17T02:37:09.053Z,25.25
2023-04-17T02:39:10.224Z,25.25
2023-04-17T02:41:09.392Z,25.25
2023-04-17T02:43:08.837Z,25.25
2023-04-17T02:45:09.670Z,25.25
2023-04-17T02:47:09.548Z,25.25
2023-04-17T02:49:10.062Z,25.25
2023-04-17T02:51:09.218Z,25.25
2023-04-17T02:53:08.770Z,25.25
2023-04-17T02:55:09.330Z,25.25
2023-04-17T02:57:08.964Z,25.25
2023-04-17T02:59:09.592Z,25.25
2023-04-17T03:01:12.194Z,25.25
2023-04-17T03:03:10.568Z,25.25
2023-04-17T03:05:09.400Z,25.25
2023-04-17T03:07:09.494Z,25.25
2023-04-17T03:09:08.936Z,25.25
2023-04-17T03:11:09.533Z,25.25
2023-04-17T03:13:08.990Z,25.25
2023-04-17T03:15:09.526Z,25.25
2023-04-17T03:17:09.750Z,25.25
2023-04-17T03:19:09.840Z,25.25
2023-04-17T03:21:09.386Z,25.25
2023-04-17T03:23:09.689Z,25.25
2023-04-17T03:25:09.191Z,25.25
2023-04-17T03:27:09.845Z,25.25
2023-04-17T03:29:09.298Z,25.25
2023-04-17T03:31:09.707Z,25.25
2023-04-17T03:33:09.673Z,25.25
2023-04-17T03:35:08.855Z,25.25
2023-04-17T03:37:09.401Z,25.25
2023-04-17T03:39:09.173Z,25.25
2023-04-17T03:41:09.216Z,25.25
2023-04-17T03:43:08.873Z,25.25
2023-04-17T03:45:09.529Z,25.25
2023-04-17T03:47:09.576Z,25.25
2023-04-17T03:49:10.003Z,25.25
2023-04-17T03:51:08.951Z,25.25
2023-04-17T03:53:09.554Z,25.25
2023-04-17T03:55:09.680Z,25.25
2023-04-17T03:57:09.663Z,25.25
2023-04-17T03:59:09.000Z,25.25
2023-04-17T04:01:15.793Z,25.25
2023-04-17T04:03:10.945Z,25.25
2023-04-17T04:05:11.006Z,25.25
2023-04-17T04:07:09.835Z,25.25
2023-04-17T04:09:09.675Z,25.25
2023-04-17T04:11:09.047Z,25.25
2023-04-17T04:13:09.520Z,25.25
2023-04-17T04:15:08.983Z,25.25
2023-04-17T04:17:10.123Z,25.25
2023-04-17T04:19:09.430Z,25.25
2023-04-17T04:21:08.860Z,25.25
2023-04-17T04:23:09.641Z,25.25
2023-04-17T04:25:08.978Z,25.25
2023-04-17T04:27:09.581Z,25.25
2023-04-17T04:29:09.928Z,25.25
2023-04-17T04:31:09.860Z,25.25
2023-04-17T04:33:09.205Z,25.25
2023-04-17T04:35:09.391Z,25.25
2023-04-17T04:37:09.405Z,25.25
2023-04-17T04:39:09.973Z,25.25
2023-04-17T04:41:09.036Z,25.25
2023-04-17T04:43:09.712Z,25.25
2023-04-17T04:45:09.230Z,25.25
2023-04-17T04:47:09.817Z,25.25
2023-04-17T04:49:09.277Z,25.25
2023-04-17T04:51:09.696Z,25.25
2023-04-17T04:53:09.050Z,25.25
2023-04-17T04:55:09.644Z,25.25
2023-04-17T04:57:09.178Z,25.25
2023-04-17T04:59:09.659Z,25.25
2023-04-17T05:01:13.532Z,25.25
2023-04-17T05:03:11.569Z,25.25
2023-04-17T05:05:10.473Z,25.25
2023-04-17T05:07:09.079Z,25.25
2023-04-17T05:09:09.553Z,25.25
2023-04-17T05:11:08.909Z,25.25
2023-04-17T05:13:09.410Z,25.25
2023-04-17T05:15:08.949Z,25.25
2023-04-17T05:17:09.955Z,25.25
2023-04-17T05:19:09.372Z,25.25
2023-04-17T05:21:09.819Z,25.25
2023-04-17T05:23:08.973Z,25.25
2023-04-17T05:25:09.315Z,25.25
2023-04-17T05:27:08.705Z,25.25
2023-04-17T05:29:13.561Z,25.25
2023-04-17T05:31:08.846Z,25.25
2023-04-17T05:33:09.680Z,25.25
2023-04-17T05:35:08.835Z,25.25
2023-04-17T05:37:09.765Z,25.25
2023-04-17T05:39:09.247Z,25.25
2023-04-17T05:41:08.929Z,25.25
2023-04-17T05:43:09.482Z,25.25
2023-04-17T05:45:08.854Z,25.25
2023-04-17T05:47:09.681Z,25.25
2023-04-17T05:49:09.341Z,25.25
2023-04-17T05:51:09.556Z,25.25
2023-04-17T05:53:10.677Z,25.25
2023-04-17T05:55:09.166Z,25.25
2023-04-17T05:57:08.830Z,25.25
2023-04-17T05:59:24.673Z,25.25
2023-04-17T06:01:12.131Z,25.25
2023-04-17T06:03:10.624Z,25.25
2023-04-17T06:05:13.559Z,25.25
2023-04-17T06:07:09.407Z,25.25
2023-04-17T06:09:09.887Z,25.25
2023-04-17T06:11:08.904Z,25.25
2023-04-17T06:13:09.567Z,25.25
2023-04-17T06:15:09.283Z,25.25
2023-04-17T06:17:10.102Z,25.25
2023-04-17T06:19:09.368Z,25.25
2023-04-17T06:21:13.167Z,25.25
2023-04-17T06:23:09.195Z,25.25
2023-04-17T06:25:09.636Z,25.25
2023-04-17T06:27:09.220Z,25.25
2023-04-17T06:29:09.902Z,25.25
2023-04-17T06:31:09.370Z,25.25
2023-04-17T06:33:10.043Z,25.25
2023-04-17T06:35:22.276Z,25.25
2023-04-17T06:37:09.719Z,25.25
2023-04-17T06:39:09.074Z,25.25
2023-04-17T06:41:09.651Z,25.25
2023-04-17T06:43:09.200Z,25.25
2023-04-17T06:45:09.613Z,25.25
2023-04-17T06:47:12.263Z,25.25
2023-04-17T06:49:09.837Z,25.25
2023-04-17T06:51:09.018Z,25.25
2023-04-17T06:53:09.735Z,25.25
2023-04-17T06:55:09.233Z,25.25
2023-04-17T06:57:09.724Z,25.25
2023-04-17T06:59:09.150Z,0.37
2023-04-17T07:01:12.589Z,0.37
2023-04-17T07:03:10.562Z,0.37
2023-04-17T07:05:10.387Z,7.21
2023-04-17T07:07:09.620Z,7.21
2023-04-17T07:09:09.077Z,7.21
2023-04-17T07:11:09.474Z,7.21
2023-04-17T07:13:08.973Z,7.21
2023-04-17T07:15:09.769Z,7.21
2023-04-17T07:17:09.759Z,7.21
2023-04-17T07:19:09.347Z,7.21
2023-04-17T07:21:08.930Z,7.21
2023-04-17T07:23:12.428Z,7.21
2023-04-17T07:25:09.171Z,7.21
2023-04-17T07:27:09.532Z,7.21
2023-04-17T07:29:12.041Z,7.21
2023-04-17T07:31:09.624Z,7.21
2023-04-17T07:33:09.739Z,7.21
2023-04-17T07:35:09.423Z,7.21
2023-04-17T07:37:08.970Z,7.21
2023-04-17T07:39:09.272Z,7.21
2023-04-17T07:41:09.263Z,7.21
2023-04-17T07:43:09.295Z,7.21
2023-04-17T07:45:08.886Z,7.21
2023-04-17T07:47:09.645Z,7.21
2023-04-17T07:51:09.774Z,7.21
2023-04-17T07:53:09.068Z,7.21
2023-04-17T07:55:09.606Z,7.21
2023-04-17T07:57:09.114Z,7.21
2023-04-17T07:59:10.079Z,7.21
2023-04-17T08:01:12.226Z,7.21
2023-04-17T08:03:10.324Z,7.21
2023-04-17T08:05:11.732Z,7.21
2023-04-17T08:07:09.068Z,7.21
2023-04-17T08:09:09.549Z,7.21
2023-04-17T08:11:09.113Z,0.2
2023-04-17T08:13:09.436Z,0.17
2023-04-17T08:15:09.022Z,0.17
2023-04-17T08:17:10.205Z,0.05
2023-04-17T08:19:09.410Z,4.3
2023-04-17T08:21:09.973Z,4.3
2023-04-17T08:23:09.072Z,0.02
2023-04-17T08:25:09.473Z,0.02
2023-04-17T08:27:09.091Z,0.02
2023-04-17T08:29:09.554Z,0.02
2023-04-17T08:31:11.478Z,1.66
2023-04-17T08:37:11.811Z,0.01
2023-04-17T08:39:09.179Z,0.01
2023-04-17T08:41:09.564Z,0.01
2023-04-17T08:43:14.790Z,1.13
2023-04-17T08:45:09.554Z,1.13
2023-04-17T08:47:09.640Z,1.13
2023-04-17T08:49:10.236Z,1
2023-04-17T08:51:09.124Z,1
2023-04-17T08:53:09.429Z,1
2023-04-17T08:55:12.378Z,0.93
2023-04-17T08:57:12.002Z,0.93
2023-04-17T08:59:09.199Z,0.93
2023-04-17T09:01:17.026Z,0.01
2023-04-17T09:03:13.605Z,0.01
2023-04-17T09:05:10.691Z,0.01
2023-04-17T09:07:09.946Z,0.01
2023-04-17T09:09:09.698Z,0.01
2023-04-17T09:11:08.817Z,0.01
2023-04-17T09:13:09.337Z,0.8
2023-04-17T09:15:11.532Z,0.8
2023-04-17T09:17:09.956Z,0.8
2023-04-17T09:19:10.003Z,0.01
2023-04-17T09:21:09.393Z,0.01
2023-04-17T09:23:09.716Z,0.01
2023-04-17T09:25:09.308Z,0.78
2023-04-17T09:27:09.545Z,0.78
2023-04-17T09:29:09.362Z,0.78
2023-04-17T09:31:11.293Z,0.01
2023-04-17T09:33:09.428Z,0.01
2023-04-17T09:35:09.645Z,0.01
2023-04-17T09:37:08.998Z,0.01
2023-04-17T09:39:09.471Z,0.01
2023-04-17T09:41:09.274Z,0.01
2023-04-17T09:43:11.183Z,0.71
2023-04-17T09:45:09.655Z,0.71
2023-04-17T09:47:10.166Z,0.71
2023-04-17T09:49:09.450Z,0.72
2023-04-17T09:51:12.561Z,0.72
2023-04-17T09:53:09.174Z,0.72
2023-04-17T09:55:09.715Z,0.71
2023-04-17T09:57:09.858Z,0.71
2023-04-17T09:59:09.408Z,0.71
2023-04-17T10:01:12.747Z,0.01
2023-04-17T10:03:10.696Z,0.01
2023-04-17T10:05:10.297Z,0.01
2023-04-17T10:07:08.868Z,0.67
2023-04-17T10:09:09.262Z,0.67
2023-04-17T10:11:09.003Z,0.67
2023-04-17T10:13:09.541Z,0.01
2023-04-17T10:15:09.743Z,0.01
2023-04-17T10:17:09.486Z,0.01
2023-04-17T10:19:10.289Z,0.01
2023-04-17T10:21:09.291Z,0.01
2023-04-17T10:23:10.120Z,0.01
2023-04-17T10:25:09.395Z,0.64
2023-04-17T10:27:09.664Z,0.64
2023-04-17T10:29:09.381Z,0.64
2023-04-17T10:31:09.986Z,0.64
2023-04-17T10:33:10.088Z,0.64
2023-04-17T10:35:09.778Z,0.64
2023-04-17T10:37:09.003Z,0.01
2023-04-17T10:39:09.849Z,0.01
2023-04-17T10:41:11.504Z,0.01
2023-04-17T10:43:09.467Z,0.01
2023-04-17T10:45:08.907Z,0.01
2023-04-17T10:47:10.117Z,0.01
2023-04-17T10:49:10.269Z,0.66
2023-04-17T10:51:08.900Z,0.66
2023-04-17T10:53:09.511Z,0.66
2023-04-17T10:55:08.901Z,0.01
2023-04-17T10:57:09.712Z,0.01
2023-04-17T10:59:17.182Z,0.01
2023-04-17T11:01:13.614Z,0.64
2023-04-17T11:03:10.106Z,0.64
2023-04-17T11:05:10.268Z,0.64
2023-04-17T11:07:09.179Z,0.01
2023-04-17T11:09:08.956Z,0.01
2023-04-17T11:11:09.612Z,0.01
2023-04-17T11:13:09.374Z,0.63
2023-04-17T11:15:11.444Z,0.63
2023-04-17T11:17:09.441Z,0.63
2023-04-17T11:19:09.885Z,0.64
2023-04-17T11:21:09.120Z,0.64
2023-04-17T11:23:09.709Z,0.64
2023-04-17T11:25:09.192Z,0.01
2023-04-17T11:27:09.885Z,0.01
2023-04-17T11:29:09.383Z,0.01
2023-04-17T11:31:09.966Z,0.01
2023-04-17T11:33:09.477Z,0.01
2023-04-17T11:35:10.099Z,0.01
2023-04-17T11:37:09.456Z,0.01
2023-04-17T11:39:10.888Z,0.01
2023-04-17T11:41:09.342Z,0.01
2023-04-17T11:43:08.787Z,0.01
2023-04-17T11:45:09.078Z,0.01
2023-04-17T11:47:10.479Z,0.01
2023-04-17T11:49:09.281Z,0.01
2023-04-17T11:51:09.703Z,0.01
2023-04-17T11:53:10.392Z,0.01
2023-04-17T11:55:09.845Z,0.01
2023-04-17T11:57:08.803Z,0.01
2023-04-17T11:59:09.621Z,0.01
2023-04-17T12:01:09.038Z,0.01
2023-04-17T12:03:10.263Z,0.01
2023-04-17T12:05:13.119Z,0.01
2023-04-17T12:07:11.112Z,0.62
2023-04-17T12:09:09.661Z,0.62
2023-04-17T12:11:09.594Z,0.62
2023-04-17T12:13:08.917Z,0.62
2023-04-17T12:15:11.405Z,0.62
2023-04-17T12:17:09.468Z,0.62
2023-04-17T12:19:09.535Z,0.01
2023-04-17T12:21:11.755Z,0.01
2023-04-17T12:23:09.671Z,0.01
2023-04-17T12:25:09.525Z,0.62
2023-04-17T12:27:09.638Z,0.62
2023-04-17T12:29:09.053Z,0.62
2023-04-17T12:31:09.744Z,0.01
2023-04-17T12:33:09.735Z,0.01
2023-04-17T12:35:12.584Z,0.01
2023-04-17T12:37:09.648Z,0.01
2023-04-17T12:39:08.676Z,0.01
2023-04-17T12:41:09.990Z,0.01
2023-04-17T12:43:22.800Z,0.01
2023-04-17T12:45:09.552Z,0.01
2023-04-17T12:47:09.182Z,0.01
2023-04-17T12:49:09.650Z,0.01
2023-04-17T12:51:09.190Z,0.01
2023-04-17T12:53:11.573Z,0.01
2023-04-17T12:55:09.491Z,0.01
2023-04-17T12:57:09.789Z,0.01
2023-04-17T12:59:12.659Z,0.01
2023-04-17T13:01:15.099Z,0.01
2023-04-17T13:03:10.569Z,0.01
2023-04-17T13:05:15.851Z,0.01
2023-04-17T13:07:09.122Z,0.01
2023-04-17T13:09:09.709Z,0.01
2023-04-17T13:11:09.281Z,0.01
2023-04-17T13:13:09.580Z,0.01
2023-04-17T13:15:09.441Z,0.01
2023-04-17T13:17:10.058Z,0.01
2023-04-17T13:19:09.350Z,0.57
2023-04-17T13:21:09.611Z,0.57
2023-04-17T13:23:10.466Z,0.57
2023-04-17T13:25:09.449Z,0.59
2023-04-17T13:27:09.600Z,0.59
2023-04-17T13:29:09.539Z,0.59
2023-04-17T13:31:10.008Z,0.57
2023-04-17T13:33:09.413Z,0.57
2023-04-17T13:35:10.305Z,0.57
2023-04-17T13:37:09.265Z,0.58
2023-04-17T13:39:09.071Z,0.58
2023-04-17T13:41:12.048Z,0.58
2023-04-17T13:43:09.207Z,0.58
2023-04-17T13:45:09.579Z,0.58
2023-04-17T13:47:09.535Z,0.58
2023-04-17T13:49:09.892Z,0.01
2023-04-17T13:51:09.191Z,0.01
2023-04-17T13:53:11.103Z,0.01
2023-04-17T13:55:09.250Z,0.56
2023-04-17T13:57:09.612Z,0.56
2023-04-17T13:59:09.224Z,0.56
2023-04-17T14:01:12.783Z,0.01
2023-04-17T14:03:11.232Z,0.01
2023-04-17T14:05:10.785Z,0.01
2023-04-17T14:07:09.534Z,0.56
2023-04-17T14:09:08.862Z,0.56
2023-04-17T14:11:09.429Z,0.56
2023-04-17T14:13:08.832Z,0.56
2023-04-17T14:15:09.758Z,0.56
2023-04-17T14:17:09.253Z,0.56
2023-04-17T14:19:24.361Z,0.01
2023-04-17T14:21:09.074Z,0.01
2023-04-17T14:23:09.893Z,0.01
2023-04-17T14:25:09.043Z,0.01
2023-04-17T14:27:09.465Z,0.01
2023-04-17T14:29:08.991Z,0.01
2023-04-17T14:31:09.576Z,0.01
2023-04-17T14:33:09.232Z,0.01
2023-04-17T14:35:09.667Z,0.01
2023-04-17T14:37:10.127Z,0.01
2023-04-17T14:39:09.184Z,0.01
2023-04-17T14:41:09.620Z,0.01
2023-04-17T14:43:27.662Z,0.01
2023-04-17T14:45:09.462Z,0.01
2023-04-17T14:47:09.839Z,0.01
2023-04-17T14:49:28.299Z,0.01
2023-04-17T14:51:09.161Z,0.01
2023-04-17T14:53:09.633Z,0.01
2023-04-17T14:55:09.473Z,0.01
2023-04-17T14:57:08.748Z,0.01
2023-04-17T14:59:09.377Z,0.01
2023-04-17T15:01:12.981Z,0.01
2023-04-17T15:03:10.054Z,0.01
2023-04-17T15:05:09.912Z,0.01
2023-04-17T15:07:08.717Z,0.01
2023-04-17T15:09:09.329Z,0.01
2023-04-17T15:11:24.793Z,0.01
2023-04-17T15:13:09.318Z,0.01
2023-04-17T15:15:09.478Z,0.01
2023-04-17T15:17:09.316Z,0.01
2023-04-17T15:19:09.366Z,0.01
2023-04-17T15:21:10.350Z,0.01
2023-04-17T15:23:09.336Z,0.01
2023-04-17T15:25:09.661Z,0.53
2023-04-17T15:27:09.025Z,0.53
2023-04-17T15:29:09.662Z,0.53
2023-04-17T15:31:08.845Z,0.01
2023-04-17T15:33:11.054Z,0.01
2023-04-17T15:35:09.671Z,0.01
2023-04-17T15:37:09.256Z,0.01
2023-04-17T15:39:09.531Z,0.01
2023-04-17T15:41:10.674Z,0.01
2023-04-17T15:43:09.422Z,0.01
2023-04-17T15:45:08.872Z,0.01
2023-04-17T15:47:10.009Z,0.01
2023-04-17T15:49:27.276Z,0.01
2023-04-17T15:51:09.477Z,0.01
2023-04-17T15:53:09.015Z,0.01
2023-04-17T15:55:09.414Z,0.52
2023-04-17T15:57:08.795Z,0.52
2023-04-17T15:59:09.245Z,0.52
2023-04-17T16:01:12.519Z,0.01
2023-04-17T16:03:10.282Z,0.01
2023-04-17T16:05:10.499Z,0.01
2023-04-17T16:07:09.424Z,0.01
2023-04-17T16:09:09.312Z,0.01
2023-04-17T16:11:09.636Z,0.01
2023-04-17T16:13:09.264Z,0
2023-04-17T16:15:09.541Z,0
2023-04-17T16:17:09.368Z,0
2023-04-17T16:19:09.561Z,0.48
2023-04-17T16:21:09.240Z,0.48
2023-04-17T16:23:09.640Z,0.48
2023-04-17T16:25:09.165Z,0
2023-04-17T16:27:09.677Z,0
2023-04-17T16:29:09.212Z,0
2023-04-17T16:31:09.612Z,0
2023-04-17T16:33:09.464Z,0
2023-04-17T16:35:09.510Z,0
2023-04-17T16:37:09.050Z,0
2023-04-17T16:39:09.553Z,0
2023-04-17T16:41:09.670Z,0
2023-04-17T16:43:09.126Z,0
2023-04-17T16:45:09.980Z,0
2023-04-17T16:47:59.226Z,0
2023-04-17T16:49:09.692Z,0
2023-04-17T16:51:10.856Z,0
2023-04-17T16:53:09.509Z,0
2023-04-17T16:55:09.620Z,0
2023-04-17T16:57:09.430Z,0
2023-04-17T16:59:09.735Z,0
2023-04-17T17:01:14.042Z,0
2023-04-17T17:03:10.422Z,0
2023-04-17T17:05:09.828Z,0
2023-04-17T17:07:09.639Z,0.43
2023-04-17T17:09:08.876Z,0.43
2023-04-17T17:11:09.649Z,0.43
2023-04-17T17:13:09.305Z,0.42
2023-04-17T17:15:09.604Z,0.42
2023-04-17T17:17:09.720Z,0.42
2023-04-17T17:19:09.544Z,0
2023-04-17T17:21:08.854Z,0
2023-04-17T17:23:09.386Z,0
2023-04-17T17:25:08.799Z,0
2023-04-17T17:27:08.965Z,0
2023-04-17T17:29:09.469Z,0
2023-04-17T17:31:09.056Z,0.41
2023-04-17T17:33:10.095Z,0.41
2023-04-17T17:35:33.626Z,0.41
2023-04-17T17:37:09.494Z,0
2023-04-17T17:39:10.002Z,0
2023-04-17T17:41:09.719Z,0
2023-04-17T17:43:09.227Z,0
2023-04-17T17:45:10.135Z,0
2023-04-17T17:47:09.760Z,0
2023-04-17T17:49:08.992Z,0
2023-04-17T17:51:09.568Z,0
2023-04-17T17:53:10.412Z,0
2023-04-17T17:55:09.554Z,0.36
2023-04-17T17:57:09.064Z,0.36
2023-04-17T17:59:09.392Z,0.36
2023-04-17T18:01:14.013Z,0
2023-04-17T18:03:10.459Z,0
2023-04-17T18:05:11.852Z,0
2023-04-17T18:07:09.256Z,0
2023-04-17T18:09:08.814Z,0
2023-04-17T18:11:09.377Z,0
2023-04-17T18:13:08.736Z,0.34
2023-04-17T18:15:09.974Z,0.34
2023-04-17T18:17:09.259Z,0.34
2023-04-17T18:19:09.485Z,0
2023-04-17T18:21:09.116Z,0
2023-04-17T18:23:09.280Z,0
2023-04-17T18:25:10.099Z,0
2023-04-17T18:27:09.341Z,0
2023-04-17T18:29:08.913Z,0
2023-04-17T18:31:09.515Z,0
2023-04-17T18:33:09.080Z,0
2023-04-17T18:35:09.727Z,0
2023-04-17T18:37:08.900Z,0
2023-04-17T18:39:09.555Z,0
2023-04-17T18:41:09.433Z,0
2023-04-17T18:43:08.813Z,0
2023-04-17T18:45:09.536Z,0
2023-04-17T18:47:09.197Z,0
2023-04-17T18:49:09.618Z,0.39
2023-04-17T18:51:09.162Z,0.39
2023-04-17T18:53:13.789Z,0.39
2023-04-17T18:55:08.883Z,0
2023-04-17T18:57:09.487Z,0
2023-04-17T18:59:08.792Z,0
2023-04-17T19:01:12.698Z,0
2023-04-17T19:03:10.059Z,0
2023-04-17T19:05:10.220Z,0
2023-04-17T19:07:09.191Z,0
2023-04-17T19:09:09.598Z,0
2023-04-17T19:11:12.056Z,0
2023-04-17T19:13:09.541Z,0
2023-04-17T19:15:09.443Z,0
2023-04-17T19:17:10.282Z,0
2023-04-17T19:19:09.358Z,0
2023-04-17T19:21:09.747Z,0
2023-04-17T19:23:12.222Z,0
2023-04-17T19:25:08.807Z,0.44
2023-04-17T19:27:09.371Z,0.44
2023-04-17T19:29:08.885Z,0.44
2023-04-17T19:31:09.630Z,0
2023-04-17T19:33:09.677Z,0
2023-04-17T19:35:08.793Z,0
2023-04-17T19:37:09.252Z,0.46
2023-04-17T19:39:11.398Z,0.46
2023-04-17T19:41:21.988Z,0.46
2023-04-17T19:43:09.618Z,0.47
2023-04-17T19:45:10.948Z,0.47
2023-04-17T19:47:09.952Z,0.47
2023-04-17T19:49:09.132Z,0.48
2023-04-17T19:51:09.455Z,0.48
2023-04-17T19:53:09.044Z,0.48
2023-04-17T19:55:09.474Z,0
2023-04-17T19:57:08.854Z,0
2023-04-17T19:59:09.378Z,0
2023-04-17T20:01:14.651Z,0.5
2023-04-17T20:03:10.278Z,0.5
2023-04-17T20:05:10.573Z,0.5
2023-04-17T20:07:08.750Z,0
2023-04-17T20:09:09.629Z,0
2023-04-17T20:11:08.917Z,0
2023-04-17T20:13:09.512Z,0.01
2023-04-17T20:15:09.284Z,0.01
2023-04-17T20:17:09.954Z,0.01
2023-04-17T20:19:09.609Z,0.53
2023-04-17T20:21:10.686Z,0.53
2023-04-17T20:23:09.072Z,0.53
2023-04-17T20:25:09.625Z,0.01
2023-04-17T20:27:11.291Z,0.01
2023-04-17T20:29:09.555Z,0.01
2023-04-17T20:31:09.189Z,0.53
2023-04-17T20:33:12.070Z,0.53
2023-04-17T20:35:09.013Z,0.53
2023-04-17T20:37:09.536Z,0.53
2023-04-17T20:39:09.090Z,0.53
2023-04-17T20:41:09.558Z,0.53
2023-04-17T20:43:09.192Z,0.53
2023-04-17T20:45:09.954Z,0.53
2023-04-17T20:47:09.752Z,0.53
2023-04-17T20:49:10.195Z,0.53
2023-04-17T20:51:09.265Z,0.53
2023-04-17T20:53:09.794Z,0.53
2023-04-17T20:55:09.523Z,0.53
2023-04-17T20:57:08.758Z,0.53
2023-04-17T20:59:09.454Z,0.53
2023-04-17T21:01:24.134Z,0.53
2023-04-17T21:03:10.602Z,0.53
2023-04-17T21:05:10.585Z,0.53
2023-04-17T21:07:09.180Z,0.53
2023-04-17T21:09:10.098Z,0.01
2023-04-17T21:11:09.547Z,0.01
2023-04-17T21:13:09.042Z,0.01
2023-04-17T21:15:09.749Z,0.01
2023-04-17T21:17:09.427Z,0.01
2023-04-17T21:19:09.682Z,0.01
2023-04-17T21:21:09.173Z,0.58
2023-04-17T21:23:09.544Z,0.58
2023-04-17T21:25:09.887Z,0.58
2023-04-17T21:27:09.052Z,0.01
2023-04-17T21:29:09.619Z,0.01
2023-04-17T21:31:12.311Z,0.01
2023-04-17T21:33:09.687Z,0.01
2023-04-17T21:35:09.582Z,0.01
2023-04-17T21:37:08.611Z,0.01
2023-04-17T21:39:09.340Z,0.01
2023-04-17T21:41:14.251Z,0.01
2023-04-17T21:43:09.297Z,0.01
2023-04-17T21:45:09.235Z,0.01
2023-04-17T21:47:09.592Z,0.01
2023-04-17T21:49:08.959Z,0.58
2023-04-17T21:51:09.477Z,0.01
2023-04-17T21:53:08.986Z,0.01
2023-04-17T21:55:10.167Z,0.01
2023-04-17T21:57:09.185Z,0.01
2023-04-17T21:59:08.696Z,0.01
2023-04-17T22:01:09.769Z,0.56
2023-04-17T22:03:10.384Z,0.01
2023-04-17T22:05:10.194Z,0.01
2023-04-17T22:07:08.994Z,0.55
2023-04-17T22:09:09.533Z,0.01
2023-04-17T22:11:08.967Z,0.01
2023-04-17T22:13:09.373Z,0.01
2023-04-17T22:15:09.524Z,0.01
2023-04-17T22:17:09.935Z,0.01
2023-04-17T22:19:08.849Z,0.01
2023-04-17T22:21:09.320Z,0.01
2023-04-17T22:23:08.854Z,0.01
2023-04-17T22:25:09.845Z,0.54
2023-04-17T22:27:09.031Z,0.54
2023-04-17T22:29:09.476Z,0.54
2023-04-17T22:31:09.153Z,0.54
2023-04-17T22:33:09.896Z,0.01
2023-04-17T22:35:09.255Z,0.01
2023-04-17T22:37:09.525Z,0.54
2023-04-17T22:39:08.794Z,0.01
2023-04-17T22:41:09.597Z,0.01
2023-04-17T22:43:09.119Z,0.01
2023-04-17T22:45:09.897Z,0.54
2023-04-17T22:47:09.510Z,0.54
2023-04-17T22:49:09.853Z,0.53
2023-04-17T22:51:09.072Z,0.53
2023-04-17T22:53:08.893Z,0.53
2023-04-17T22:55:23.213Z,0.01
2023-04-17T22:57:09.021Z,0.53
2023-04-17T22:59:09.577Z,0.53
2023-04-17T23:01:14.562Z,0.01
2023-04-17T23:03:10.147Z,0.53
2023-04-17T23:05:09.581Z,0.53
2023-04-17T23:07:09.326Z,0.01
2023-04-17T23:09:09.653Z,0.01
2023-04-17T23:11:09.210Z,0.01
2023-04-17T23:13:09.766Z,0.01
2023-04-17T23:15:09.667Z,0.01
2023-04-17T23:17:08.970Z,0.01
2023-04-17T23:19:09.480Z,0.01
2023-04-17T23:21:08.800Z,0.52
2023-04-17T23:23:09.965Z,0.52
2023-04-17T23:25:09.234Z,0.01
2023-04-17T23:27:11.132Z,0.01
2023-04-17T23:29:08.984Z,0.01
2023-04-17T23:31:09.875Z,0.01
2023-04-17T23:33:09.423Z,0.01
2023-04-17T23:35:10.255Z,0.01
2023-04-17T23:37:09.121Z,0.01
2023-04-17T23:39:09.630Z,0.01
2023-04-17T23:41:09.141Z,0.01
2023-04-17T23:43:09.638Z,0.51
2023-04-17T23:45:09.374Z,0.01
2023-04-17T23:47:10.024Z,0.01
2023-04-17T23:49:09.278Z,0
2023-04-17T23:51:09.562Z,0
2023-04-17T23:53:09.095Z,0
2023-04-17T23:55:09.854Z,0
2023-04-17T23:57:08.940Z,0
2023-04-17T23:59:09.443Z,0
